Time;durP1;ratioP1;P1;durP2;ratioP2;P2;SDS_P1;SDS_P2;PMS_P1;PMS_P2;Temp;Humidity;BMP_temperature;BMP_pressure;BME280_temperature;BME280_humidity;BME280_pressure;Samples;Min_cycle;Max_cycle;Signal;HPM_P1;HPM_P2
2022/01/28 00:05:00;;;;;;;46.25;5.30;;;;;;;3.36;100.00;101643.06;4911472;29;20044;-76
2022/01/28 00:07:26;;;;;;;36.95;5.10;;;;;;;3.31;100.00;101643.31;4880001;29;20063;-76
2022/01/28 00:09:52;;;;;;;46.38;4.78;;;;;;;3.17;100.00;101637.97;4888142;29;20123;-75
2022/01/28 00:12:18;;;;;;;33.08;5.05;;;;;;;3.09;100.00;101650.47;4889576;29;20156;-75
2022/01/28 00:14:53;;;;;;;45.70;6.13;;;;;;;3.19;100.00;101658.63;4908199;29;20090;-76
2022/01/28 00:36:59;;;;;;;42.17;5.60;;;;;;;3.04;100.00;101683.56;4878661;29;20052;-75
2022/01/28 00:39:25;;;;;;;40.63;4.68;;;;;;;2.93;100.00;101681.47;4887785;29;20044;-75
2022/01/28 00:41:51;;;;;;;34.55;4.75;;;;;;;2.75;100.00;101680.63;4881327;29;20035;-75
2022/01/28 00:44:20;;;;;;;29.50;4.93;;;;;;;2.78;100.00;101685.63;4912424;29;20044;-75
2022/01/28 00:46:46;;;;;;;27.10;4.03;;;;;;;2.83;100.00;101706.16;4886736;29;20123;-75
2022/01/28 00:49:11;;;;;;;31.95;3.70;;;;;;;2.61;100.00;101690.78;4897501;29;20039;-74
2022/01/28 00:51:37;;;;;;;22.52;3.63;;;;;;;2.63;100.00;101709.69;4904343;29;20032;-75
2022/01/28 00:54:02;;;;;;;27.33;4.05;;;;;;;2.69;100.00;101722.34;4894122;29;20190;-76
2022/01/28 00:56:28;;;;;;;27.10;4.45;;;;;;;2.58;100.00;101717.69;4891368;29;20150;-75
2022/01/28 00:58:54;;;;;;;26.52;4.13;;;;;;;2.79;100.00;101733.97;4914143;29;20032;-76
2022/01/28 01:01:20;;;;;;;31.17;4.55;;;;;;;2.94;100.00;101735.00;4900671;29;20032;-75
2022/01/28 01:03:46;;;;;;;25.95;4.00;;;;;;;2.88;100.00;101743.03;4885656;29;20048;-75
2022/01/28 01:06:12;;;;;;;37.88;4.53;;;;;;;2.68;100.00;101744.81;4879010;29;20508;-76
2022/01/28 01:08:37;;;;;;;23.17;2.83;;;;;;;2.74;100.00;101756.66;4889968;29;20046;-76
2022/01/28 01:11:04;;;;;;;28.10;2.80;;;;;;;2.69;100.00;101749.09;4888768;29;20044;-75
2022/01/28 01:13:35;;;;;;;27.65;3.70;;;;;;;2.71;100.00;101756.78;4865518;29;20039;-75
2022/01/28 01:16:01;;;;;;;27.48;4.25;;;;;;;2.68;100.00;101754.34;4865637;29;20043;-76
2022/01/28 01:18:35;;;;;;;37.65;4.90;;;;;;;2.62;100.00;101749.44;4878779;29;20079;-76
2022/01/28 01:21:06;;;;;;;42.53;5.57;;;;;;;2.71;100.00;101760.22;4909015;29;20135;-76
2022/01/28 01:23:35;;;;;;;27.90;4.68;;;;;;;2.77;100.00;101759.13;4913305;29;20071;-75
2022/01/28 01:28:32;;;;;;;38.45;6.00;;;;;;;2.66;100.00;101763.94;4906221;29;20048;-76
2022/01/28 01:31:00;;;;;;;39.20;5.22;;;;;;;2.84;100.00;101773.44;4918245;29;20063;-74
2022/01/28 01:33:27;;;;;;;37.35;5.43;;;;;;;2.78;100.00;101771.13;4896884;29;20058;-76
2022/01/28 01:35:53;;;;;;;36.63;4.43;;;;;;;2.77;100.00;101773.78;4913829;29;20032;-74
2022/01/28 01:38:24;;;;;;;34.15;5.25;;;;;;;2.77;100.00;101777.25;4915349;29;20036;-75
2022/01/28 01:40:56;;;;;;;30.70;4.95;;;;;;;2.75;100.00;101780.81;4887732;29;20544;-75
2022/01/28 01:53:51;;;;;;;41.38;5.95;;;;;;;2.72;100.00;101818.06;4915579;29;20040;-76
2022/01/28 01:56:20;;;;;;;36.00;5.22;;;;;;;2.79;100.00;101819.47;4920949;29;20047;-74
2022/01/28 01:58:47;;;;;;;39.10;5.35;;;;;;;2.65;100.00;101814.91;4899656;29;20040;-75
2022/01/28 02:01:13;;;;;;;42.95;5.28;;;;;;;2.82;100.00;101788.22;4905254;29;20036;-76
2022/01/28 02:03:39;;;;;;;37.70;5.72;;;;;;;2.86;100.00;101825.19;4917763;29;20028;-76
2022/01/28 02:06:05;;;;;;;43.03;5.38;;;;;;;2.89;100.00;101825.06;4878136;29;20072;-74
2022/01/28 02:08:33;;;;;;;41.25;5.90;;;;;;;2.90;100.00;101824.16;4901838;29;20575;-76
2022/01/28 02:10:59;;;;;;;54.30;6.60;;;;;;;2.96;100.00;101821.28;4899230;29;20433;-75
2022/01/28 02:13:26;;;;;;;49.47;6.63;;;;;;;2.90;100.00;101842.28;4903184;29;20400;-75
2022/01/28 02:15:53;;;;;;;37.80;6.00;;;;;;;2.83;100.00;101861.63;4910712;29;20056;-75
2022/01/28 02:18:20;;;;;;;46.40;6.97;;;;;;;2.94;100.00;101856.81;4897483;29;20504;-75
2022/01/28 02:20:49;;;;;;;38.22;4.78;;;;;;;2.83;100.00;101865.06;4897939;29;20064;-76
2022/01/28 02:23:15;;;;;;;47.00;5.95;;;;;;;2.83;100.00;101859.88;4909893;29;20029;-74
2022/01/28 02:25:41;;;;;;;39.10;4.65;;;;;;;2.74;100.00;101873.25;4885077;29;20047;-75
2022/01/28 02:28:10;;;;;;;34.85;4.97;;;;;;;2.80;100.00;101861.75;4903302;29;20043;-76
2022/01/28 02:30:36;;;;;;;40.83;5.15;;;;;;;2.99;100.00;101870.38;4890126;29;20044;-75
2022/01/28 02:33:11;;;;;;;34.63;5.20;;;;;;;3.01;100.00;101860.78;4916685;29;20024;-76
2022/01/28 02:35:38;;;;;;;31.55;5.03;;;;;;;3.10;100.00;101875.09;4911194;29;20048;-75
2022/01/28 02:38:04;;;;;;;37.05;5.55;;;;;;;3.09;100.00;101876.00;4879211;29;20456;-75
2022/01/28 02:40:31;;;;;;;41.35;6.72;;;;;;;3.08;100.00;101872.56;4907658;29;20043;-76
2022/01/28 02:43:02;;;;;;;41.95;5.93;;;;;;;3.08;100.00;101890.69;4897183;29;20264;-76
2022/01/28 02:45:35;;;;;;;35.15;5.28;;;;;;;3.16;100.00;101900.72;4896859;29;20052;-76
2022/01/28 02:48:04;;;;;;;35.40;4.72;;;;;;;3.17;100.00;101907.59;4895686;29;20029;-75
2022/01/28 02:50:38;;;;;;;40.15;4.90;;;;;;;3.19;100.00;101904.94;4912007;29;20050;-75
2022/01/28 02:53:09;;;;;;;40.28;4.25;;;;;;;3.04;100.00;101911.66;4916696;29;20111;-75
2022/01/28 02:55:41;;;;;;;33.88;5.53;;;;;;;3.01;100.00;101915.22;4894163;29;20036;-75
2022/01/28 02:58:22;;;;;;;40.55;5.65;;;;;;;2.97;100.00;101916.25;4880747;29;20051;-75
2022/01/28 03:00:49;;;;;;;36.42;4.55;;;;;;;3.00;100.00;101918.72;4894477;29;20586;-76
2022/01/28 03:03:22;;;;;;;41.10;5.05;;;;;;;3.06;100.00;101921.03;4892880;29;20028;-76
2022/01/28 03:05:52;;;;;;;35.72;4.63;;;;;;;3.11;100.00;101908.72;4899780;29;20394;-76
2022/01/28 03:08:19;;;;;;;52.80;6.45;;;;;;;3.19;100.00;101925.69;4898749;29;20069;-75
2022/01/28 03:13:46;;;;;;;50.25;5.72;;;;;;;2.96;100.00;101944.84;4906194;29;20456;-75
2022/01/28 03:16:15;;;;;;;47.55;6.25;;;;;;;2.92;100.00;101924.25;4877870;29;20061;-75
2022/01/28 03:19:00;;;;;;;40.80;5.75;;;;;;;3.00;100.00;101930.88;4894668;29;20083;-76
2022/01/28 03:23:55;;;;;;;36.85;5.20;;;;;;;3.18;100.00;101936.97;4915745;29;20036;-75
2022/01/28 03:26:21;;;;;;;45.20;4.97;;;;;;;3.08;100.00;101941.72;4888680;29;20495;-75
2022/01/28 03:28:46;;;;;;;43.08;5.97;;;;;;;3.10;100.00;101924.34;4904297;29;20040;-75
2022/01/28 03:31:12;;;;;;;45.58;6.20;;;;;;;3.18;100.00;101932.59;4900936;29;20036;-76
2022/01/28 03:33:38;;;;;;;44.70;6.18;;;;;;;3.30;100.00;101955.41;4904538;29;20503;-76
2022/01/28 03:36:07;;;;;;;45.08;6.30;;;;;;;3.35;100.00;101960.38;4904219;29;20624;-76
2022/01/28 03:38:34;;;;;;;33.45;5.43;;;;;;;3.41;100.00;101980.84;4900436;29;20036;-75
2022/01/28 03:41:00;;;;;;;45.50;6.03;;;;;;;3.29;100.00;101977.03;4900935;29;20043;-76
2022/01/28 03:43:26;;;;;;;27.17;4.05;;;;;;;3.23;100.00;102002.41;4884624;29;20032;-75
2022/01/28 03:45:52;;;;;;;36.15;4.10;;;;;;;3.18;100.00;102000.00;4916846;29;20047;-76
2022/01/28 03:48:18;;;;;;;36.47;5.03;;;;;;;3.01;100.00;102007.69;4898869;29;20028;-75
2022/01/28 03:50:43;;;;;;;31.35;4.30;;;;;;;2.94;100.00;102001.97;4908993;29;20485;-74
2022/01/28 03:53:09;;;;;;;36.90;4.72;;;;;;;2.84;100.00;102026.56;4897364;29;20028;-75
2022/01/28 03:55:36;;;;;;;42.30;4.97;;;;;;;2.87;100.00;102019.50;4895026;29;20064;-74
2022/01/28 03:58:02;;;;;;;33.55;4.85;;;;;;;2.79;100.00;102023.31;4905532;29;20820;-75
2022/01/28 04:00:30;;;;;;;32.15;4.60;;;;;;;2.66;100.00;102033.38;4908930;29;20040;-75
2022/01/28 04:04:14;;;;;;;33.72;4.18;;;;;;;2.56;100.00;102016.50;4892070;29;20029;-75
2022/01/28 04:11:34;;;;;;;41.58;5.10;;;;;;;2.66;100.00;102036.81;4906922;29;20398;-74
2022/01/28 04:14:15;;;;;;;31.45;4.70;;;;;;;2.53;100.00;102041.63;4889545;29;20046;-74
2022/01/28 04:19:25;;;;;;;32.67;5.10;;;;;;;2.43;100.00;102049.84;4927165;29;20043;-75
2022/01/28 04:21:51;;;;;;;31.55;5.50;;;;;;;2.57;100.00;102073.44;4901781;29;20024;-75
2022/01/28 04:24:16;;;;;;;33.00;4.85;;;;;;;2.49;100.00;102071.16;4913933;29;20044;-74
2022/01/28 04:26:42;;;;;;;28.63;4.50;;;;;;;2.53;100.00;102077.91;4878978;29;20742;-75
2022/01/28 04:29:11;;;;;;;36.38;4.25;;;;;;;2.58;100.00;102080.31;4886728;29;20043;-75
2022/01/28 04:31:41;;;;;;;38.65;4.85;;;;;;;2.43;100.00;102084.38;4907531;29;20035;-75
2022/01/28 04:34:07;;;;;;;34.58;4.53;;;;;;;2.36;100.00;102089.84;4900867;29;20128;-75
2022/01/28 04:36:37;;;;;;;36.90;4.60;;;;;;;2.40;100.00;102097.44;4901282;29;20036;-75
2022/01/28 04:39:12;;;;;;;36.42;4.85;;;;;;;2.16;100.00;102090.63;4906043;29;20063;-75
2022/01/28 04:41:52;;;;;;;35.13;4.88;;;;;;;2.18;100.00;102088.81;4903008;29;20555;-75
2022/01/28 04:44:19;;;;;;;43.28;4.95;;;;;;;2.14;100.00;102107.03;4894779;29;20036;-75
2022/01/28 04:46:58;;;;;;;44.05;6.10;;;;;;;2.03;100.00;102093.66;4903106;29;20040;-75
2022/01/28 04:49:57;;;;;;;36.30;4.43;;;;;;;1.99;100.00;102099.84;4906572;29;20079;-75
2022/01/28 04:52:36;;;;;;;37.85;5.57;;;;;;;1.99;100.00;102101.59;4913796;29;20057;-75
2022/01/28 05:03:29;;;;;;;39.53;5.53;;;;;;;1.87;100.00;102131.38;4919605;29;20032;-75
2022/01/28 05:06:31;;;;;;;36.70;5.93;;;;;;;1.93;100.00;102124.22;4918309;29;20118;-75
2022/01/28 05:11:44;;;;;;;41.58;4.95;;;;;;;2.04;100.00;102128.16;4902090;29;20037;-74
2022/01/28 05:27:19;;;;;;;33.55;4.85;;;;;;;2.08;100.00;102159.03;4896091;29;20032;-74
2022/01/28 05:29:44;;;;;;;34.90;5.03;;;;;;;2.16;100.00;102166.53;4901503;29;20039;-75
2022/01/28 05:32:11;;;;;;;32.97;4.75;;;;;;;2.04;100.00;102165.25;4886097;29;20036;-75
2022/01/28 05:34:37;;;;;;;30.60;4.53;;;;;;;2.13;100.00;102179.59;4897198;29;20048;-75
2022/01/28 05:37:04;;;;;;;40.20;5.10;;;;;;;2.19;100.00;102184.53;4874098;29;20306;-75
2022/01/28 05:39:31;;;;;;;27.05;3.83;;;;;;;2.11;100.00;102194.31;4896459;29;20065;-74
2022/01/28 05:41:56;;;;;;;33.58;4.13;;;;;;;2.08;100.00;102191.84;4909340;29;20081;-75
2022/01/28 05:44:22;;;;;;;28.70;3.83;;;;;;;1.97;100.00;102205.19;4896028;29;20035;-75
2022/01/28 05:46:49;;;;;;;33.10;5.22;;;;;;;1.96;100.00;102229.38;4898859;29;20040;-75
2022/01/28 05:49:16;;;;;;;35.42;4.25;;;;;;;1.90;100.00;102232.16;4886804;29;20186;-75
2022/01/28 05:51:43;;;;;;;36.33;4.82;;;;;;;1.93;100.00;102225.16;4904421;29;20067;-75
2022/01/28 05:54:10;;;;;;;31.73;4.90;;;;;;;1.82;100.00;102237.63;4907256;29;20043;-75
2022/01/28 05:56:36;;;;;;;35.15;4.45;;;;;;;1.79;100.00;102236.88;4903103;29;20500;-75
2022/01/28 05:59:02;;;;;;;37.67;4.57;;;;;;;1.74;100.00;102222.34;4880195;29;20060;-75
2022/01/28 06:01:28;;;;;;;29.73;4.22;;;;;;;1.87;100.00;102234.88;4897448;29;20144;-75
2022/01/28 06:03:54;;;;;;;32.95;4.40;;;;;;;1.95;100.00;102251.81;4897946;29;20196;-74
2022/01/28 06:06:23;;;;;;;31.05;4.18;;;;;;;2.13;100.00;102263.28;4911542;29;20051;-75
2022/01/28 06:08:51;;;;;;;33.83;4.78;;;;;;;2.12;100.00;102258.16;4910956;29;20175;-75
2022/01/28 06:11:17;;;;;;;28.88;4.15;;;;;;;2.20;100.00;102271.66;4907124;29;20036;-75
2022/01/28 06:13:43;;;;;;;36.20;5.03;;;;;;;2.23;100.00;102268.97;4903724;29;20036;-75
2022/01/28 06:16:10;;;;;;;38.97;5.47;;;;;;;2.49;97.36;102260.25;4908648;29;20032;-75
2022/01/28 06:18:37;;;;;;;40.65;4.65;;;;;;;2.53;98.76;102267.00;4894914;29;20048;-74
2022/01/28 06:21:03;;;;;;;36.95;4.97;;;;;;;2.38;100.00;102259.78;4915584;29;20036;-74
2022/01/28 06:23:29;;;;;;;38.33;5.18;;;;;;;2.34;100.00;102278.94;4894148;29;20048;-74
2022/01/28 06:25:55;;;;;;;41.95;5.90;;;;;;;2.44;97.33;102288.06;4909529;29;20119;-75
2022/01/28 06:28:21;;;;;;;32.10;5.50;;;;;;;2.44;98.99;102289.81;4898532;29;20130;-75
2022/01/28 06:30:46;;;;;;;36.72;5.07;;;;;;;2.43;99.11;102288.97;4910136;29;20111;-75
2022/01/28 06:33:13;;;;;;;31.27;4.53;;;;;;;2.37;97.50;102298.69;4897140;29;20059;-75
2022/01/28 06:35:43;;;;;;;31.85;4.68;;;;;;;2.57;95.92;102290.22;4895963;29;20032;-75
2022/01/28 06:38:09;;;;;;;40.47;5.03;;;;;;;2.50;97.85;102297.34;4884522;29;20042;-76
2022/01/28 06:40:35;;;;;;;34.50;4.95;;;;;;;2.41;97.42;102288.19;4898223;29;20115;-75
2022/01/28 06:43:00;;;;;;;44.17;5.82;;;;;;;2.36;96.20;102315.97;4880866;29;20032;-75
2022/01/28 06:45:26;;;;;;;33.75;4.82;;;;;;;2.35;96.37;102311.69;4897197;29;20051;-75
2022/01/28 06:47:52;;;;;;;34.75;4.43;;;;;;;2.37;95.26;102327.19;4901351;29;20052;-75
2022/01/28 06:50:17;;;;;;;28.80;4.53;;;;;;;2.43;94.73;102333.00;4915565;29;20460;-76
2022/01/28 06:52:44;;;;;;;34.05;4.57;;;;;;;2.43;93.93;102334.72;4916321;29;20035;-74
2022/01/28 06:55:12;;;;;;;26.67;4.20;;;;;;;2.40;95.37;102329.66;4889640;29;20099;-75
2022/01/28 06:57:38;;;;;;;31.50;4.35;;;;;;;2.41;93.85;102336.53;4897233;29;20130;-75
2022/01/28 07:00:09;;;;;;;44.28;4.10;;;;;;;2.43;92.31;102334.72;4906905;29;20127;-75
2022/01/28 07:02:34;;;;;;;35.90;4.43;;;;;;;2.49;92.96;102350.06;4920691;29;20143;-74
2022/01/28 07:05:00;;;;;;;36.13;5.03;;;;;;;2.39;92.88;102365.06;4912179;29;20127;-75
2022/01/28 07:07:27;;;;;;;30.00;4.90;;;;;;;2.48;93.44;102359.56;4911170;29;20036;-74
2022/01/28 07:09:53;;;;;;;26.38;4.35;;;;;;;2.61;91.12;102364.31;4915645;29;20142;-75
2022/01/28 07:12:20;;;;;;;28.33;4.18;;;;;;;2.55;92.86;102359.38;4895994;29;20531;-73
2022/01/28 07:14:47;;;;;;;38.08;4.03;;;;;;;2.66;92.93;102372.78;4897070;29;20076;-74
2022/01/28 07:17:12;;;;;;;37.45;4.00;;;;;;;2.67;91.54;102372.69;4895399;29;20028;-75
2022/01/28 07:19:38;;;;;;;28.42;4.10;;;;;;;2.63;93.69;102375.47;4919172;29;20491;-75
2022/01/28 07:22:04;;;;;;;30.52;4.25;;;;;;;2.55;94.32;102367.13;4911117;29;20044;-76
2022/01/28 07:24:29;;;;;;;21.23;3.70;;;;;;;2.45;93.27;102383.00;4904802;29;20099;-75
2022/01/28 07:26:56;;;;;;;40.30;4.03;;;;;;;2.41;93.75;102377.97;4881375;29;20125;-74
2022/01/28 07:29:26;;;;;;;27.92;3.85;;;;;;;2.53;93.75;102403.44;4918077;29;20032;-74
2022/01/28 07:31:52;;;;;;;32.38;4.35;;;;;;;2.40;96.86;102402.19;4887941;29;20183;-75
2022/01/28 07:34:18;;;;;;;29.30;4.40;;;;;;;2.27;97.68;102402.59;4910729;29;20122;-74
2022/01/28 07:36:44;;;;;;;32.33;4.10;;;;;;;2.06;99.07;102424.03;4899447;29;20039;-75
2022/01/28 07:39:09;;;;;;;36.13;4.47;;;;;;;2.13;96.93;102412.59;4914421;29;20036;-75
2022/01/28 07:41:36;;;;;;;46.67;4.65;;;;;;;2.17;97.95;102423.66;4911147;29;20040;-74
2022/01/28 07:44:03;;;;;;;42.30;5.00;;;;;;;2.09;99.56;102426.50;4905965;29;20036;-75
2022/01/28 07:46:29;;;;;;;35.70;4.90;;;;;;;2.05;98.53;102437.84;4871562;29;20047;-75
2022/01/28 07:48:55;;;;;;;35.70;5.32;;;;;;;2.11;97.89;102435.94;4907004;29;20040;-75
2022/01/28 07:51:21;;;;;;;44.58;4.65;;;;;;;2.18;98.29;102439.16;4889881;29;20418;-74
2022/01/28 07:53:47;;;;;;;37.42;4.82;;;;;;;2.08;100.00;102445.53;4887407;29;20029;-75
2022/01/28 07:56:14;;;;;;;35.28;4.88;;;;;;;2.06;99.88;102450.75;4884545;29;20048;-74
2022/01/28 07:58:40;;;;;;;41.25;5.40;;;;;;;2.11;100.00;102460.94;4879427;29;20040;-75
2022/01/28 08:01:06;;;;;;;40.45;5.18;;;;;;;2.08;100.00;102467.09;4890266;29;20047;-75
2022/01/28 08:03:32;;;;;;;42.50;6.50;;;;;;;2.06;100.00;102474.06;4887348;29;20039;-75
2022/01/28 08:05:58;;;;;;;43.80;5.88;;;;;;;2.12;100.00;102473.84;4918008;29;20043;-74
2022/01/28 08:08:23;;;;;;;43.25;6.20;;;;;;;2.20;100.00;102477.94;4906419;29;20544;-74
2022/01/28 08:10:49;;;;;;;42.15;5.15;;;;;;;2.22;100.00;102481.31;4891281;29;20048;-75
2022/01/28 08:13:15;;;;;;;43.35;5.68;;;;;;;2.27;100.00;102489.78;4896192;29;20028;-75
2022/01/28 08:15:41;;;;;;;37.13;5.15;;;;;;;2.28;100.00;102500.09;4884582;29;20039;-75
2022/01/28 08:18:08;;;;;;;43.10;4.78;;;;;;;2.38;100.00;102507.59;4897713;29;20040;-75
2022/01/28 08:20:34;;;;;;;47.22;7.05;;;;;;;2.33;100.00;102523.25;4875558;29;20036;-75
2022/01/28 08:23:01;;;;;;;44.60;5.72;;;;;;;2.40;100.00;102529.09;4902852;29;20032;-75
2022/01/28 08:25:29;;;;;;;36.40;5.85;;;;;;;2.44;100.00;102538.44;4894022;29;20068;-75
2022/01/28 08:27:55;;;;;;;53.38;6.88;;;;;;;2.47;100.00;102554.75;4896056;29;20051;-76
2022/01/28 08:30:24;;;;;;;47.33;6.45;;;;;;;2.44;100.00;102549.66;4912835;29;20159;-76
2022/01/28 08:32:50;;;;;;;47.72;5.72;;;;;;;2.55;100.00;102557.09;4904141;29;20060;-75
2022/01/28 08:35:18;;;;;;;39.58;5.40;;;;;;;2.51;100.00;102552.91;4922420;29;20067;-75
2022/01/28 08:37:44;;;;;;;39.00;6.15;;;;;;;2.57;100.00;102562.22;4884124;29;20092;-75
2022/01/28 08:40:12;;;;;;;53.53;6.50;;;;;;;2.70;100.00;102561.75;4896370;29;20103;-76
2022/01/28 08:42:37;;;;;;;40.28;5.35;;;;;;;2.70;100.00;102560.91;4885296;29;20432;-75
2022/01/28 08:45:04;;;;;;;53.17;5.55;;;;;;;2.77;100.00;102571.91;4920837;29;20092;-75
2022/01/28 08:47:30;;;;;;;43.50;7.75;;;;;;;2.80;100.00;102569.22;4906650;29;20036;-75
2022/01/28 08:49:55;;;;;;;48.65;5.35;;;;;;;2.80;100.00;102570.06;4897216;29;20062;-74
2022/01/28 08:52:21;;;;;;;48.58;5.40;;;;;;;2.87;100.00;102563.78;4909649;29;20143;-74
2022/01/28 08:54:47;;;;;;;39.05;5.65;;;;;;;2.96;100.00;102583.38;4904806;29;20318;-75
2022/01/28 08:57:13;;;;;;;32.00;5.25;;;;;;;2.94;99.52;102587.75;4883710;29;20062;-75
2022/01/28 08:59:43;;;;;;;35.40;5.75;;;;;;;3.03;99.30;102595.22;4888992;29;20048;-75
2022/01/28 09:02:09;;;;;;;43.00;5.60;;;;;;;3.16;100.00;102600.81;4894065;29;20036;-75
2022/01/28 09:04:34;;;;;;;44.75;5.50;;;;;;;3.14;100.00;102601.78;4891538;29;20791;-74
2022/01/28 09:07:01;;;;;;;47.50;5.85;;;;;;;3.16;98.83;102608.59;4897020;29;20036;-74
2022/01/28 09:09:28;;;;;;;39.22;4.78;;;;;;;3.20;99.20;102611.94;4902569;29;20515;-75
2022/01/28 09:12:06;;;;;;;35.25;5.28;;;;;;;3.25;99.64;102612.63;4880250;29;20040;-75
2022/01/28 09:14:32;;;;;;;42.30;5.47;;;;;;;3.24;97.73;102622.16;4895727;29;20134;-75
2022/01/28 09:16:58;;;;;;;31.52;5.20;;;;;;;3.28;99.38;102621.16;4914008;29;20111;-75
2022/01/28 09:19:23;;;;;;;47.85;5.35;;;;;;;3.35;97.96;102632.16;4897491;29;20048;-75
2022/01/28 09:21:51;;;;;;;41.60;6.13;;;;;;;3.39;98.69;102638.94;4884894;29;20036;-75
2022/01/28 09:24:17;;;;;;;47.40;5.72;;;;;;;3.49;97.77;102627.34;4907540;29;20043;-74
2022/01/28 09:26:43;;;;;;;46.30;5.28;;;;;;;3.55;97.27;102647.03;4899574;29;20862;-75
2022/01/28 09:29:08;;;;;;;47.35;5.78;;;;;;;3.60;97.12;102652.91;4916311;29;20048;-76
2022/01/28 09:31:34;;;;;;;33.80;4.28;;;;;;;3.70;96.12;102666.41;4908435;29;20063;-75
2022/01/28 09:34:00;;;;;;;46.03;5.25;;;;;;;3.70;93.44;102669.00;4908980;29;20050;-75
2022/01/28 09:36:26;;;;;;;37.38;5.22;;;;;;;3.77;94.69;102672.22;4904677;29;20040;-75
2022/01/28 09:38:52;;;;;;;39.28;5.13;;;;;;;3.80;96.26;102672.09;4891745;29;20080;-75
2022/01/28 09:41:18;;;;;;;38.50;5.15;;;;;;;3.80;94.05;102688.53;4915991;29;20040;-75
2022/01/28 09:43:45;;;;;;;43.33;5.88;;;;;;;3.82;95.69;102688.47;4903922;29;20032;-74
2022/01/28 09:46:12;;;;;;;37.67;5.53;;;;;;;3.85;93.05;102698.75;4891030;29;20080;-75
2022/01/28 09:48:39;;;;;;;37.63;5.07;;;;;;;3.92;95.22;102699.38;4913074;29;20044;-75
2022/01/28 09:51:04;;;;;;;29.38;5.15;;;;;;;3.92;95.18;102700.25;4913258;29;20064;-75
2022/01/28 09:53:30;;;;;;;39.13;5.45;;;;;;;4.04;94.62;102702.38;4912906;29;20067;-75
2022/01/28 09:55:57;;;;;;;31.83;4.72;;;;;;;4.05;94.83;102704.09;4930740;29;20036;-75
2022/01/28 09:58:24;;;;;;;40.17;4.32;;;;;;;4.12;95.69;102715.06;4889195;29;20039;-75
2022/01/28 10:00:49;;;;;;;31.00;4.68;;;;;;;4.11;94.38;102721.19;4925663;29;20045;-75
2022/01/28 10:03:17;;;;;;;40.50;4.57;;;;;;;4.14;91.96;102715.88;4916219;29;20131;-74
2022/01/28 10:05:46;;;;;;;34.42;5.53;;;;;;;4.33;92.88;102713.44;4890130;29;20076;-75
2022/01/28 10:08:16;;;;;;;53.92;6.05;;;;;;;4.31;93.58;102717.00;4898936;29;20514;-75
2022/01/28 10:10:51;;;;;;;45.08;5.45;;;;;;;4.23;93.94;102712.94;4898705;29;20042;-75
2022/01/28 10:13:36;;;;;;;37.53;5.88;;;;;;;4.38;90.95;102708.91;4901203;29;20023;-75
2022/01/28 10:16:10;;;;;;;35.88;5.55;;;;;;;4.41;94.41;102721.81;4902114;29;20031;-75
2022/01/28 10:18:37;;;;;;;46.60;5.65;;;;;;;4.46;92.40;102724.22;4903233;29;20087;-74
2022/01/28 10:21:21;;;;;;;35.30;4.75;;;;;;;4.50;91.56;102720.59;4920166;29;20516;-74
2022/01/28 10:24:23;;;;;;;52.20;5.13;;;;;;;4.54;92.38;102726.50;4918766;29;20028;-76
2022/01/28 10:27:05;;;;;;;41.08;5.30;;;;;;;4.52;90.39;102718.81;4919459;29;20497;-76
2022/01/28 10:29:34;;;;;;;37.70;5.47;;;;;;;4.62;93.52;102720.13;4903012;29;20079;-75
2022/01/28 10:32:03;;;;;;;41.63;5.05;;;;;;;4.62;89.62;102719.28;4900704;29;20569;-74
2022/01/28 10:34:31;;;;;;;43.63;5.10;;;;;;;4.72;92.73;102727.56;4882580;29;20097;-75
2022/01/28 10:37:16;;;;;;;37.30;4.50;;;;;;;4.73;92.34;102734.44;4898265;29;20394;-75
2022/01/28 10:39:52;;;;;;;29.63;4.53;;;;;;;4.77;92.22;102726.47;4883515;29;20036;-75
2022/01/28 10:42:31;;;;;;;34.38;4.43;;;;;;;4.80;92.70;102734.19;4910140;29;20044;-75
2022/01/28 10:45:03;;;;;;;37.78;4.75;;;;;;;4.83;89.84;102735.78;4883995;29;20040;-76
2022/01/28 10:47:42;;;;;;;32.83;5.13;;;;;;;4.88;89.59;102731.28;4900905;29;20527;-76
2022/01/28 10:50:36;;;;;;;30.15;4.32;;;;;;;4.87;91.22;102737.38;4902390;29;20048;-74
2022/01/28 10:53:17;;;;;;;31.35;5.10;;;;;;;4.91;89.67;102732.88;4900642;29;20043;-75
2022/01/28 10:55:54;;;;;;;34.22;4.43;;;;;;;4.96;89.65;102728.38;4899458;29;20765;-75
2022/01/28 10:58:24;;;;;;;31.38;5.10;;;;;;;5.05;90.30;102717.59;4901995;29;20036;-75
2022/01/28 11:00:53;;;;;;;42.40;5.30;;;;;;;5.12;89.16;102725.97;4894682;29;20037;-74
2022/01/28 11:03:26;;;;;;;26.15;3.60;;;;;;;5.06;88.29;102725.31;4916493;29;20395;-74
2022/01/28 11:05:58;;;;;;;36.55;4.53;;;;;;;5.16;89.35;102732.75;4916239;29;20040;-75
2022/01/28 11:08:26;;;;;;;29.08;4.20;;;;;;;5.17;89.68;102726.66;4916998;29;20036;-75
2022/01/28 11:10:52;;;;;;;34.58;4.75;;;;;;;5.26;89.05;102724.50;4888242;29;20155;-75
2022/01/28 11:13:18;;;;;;;41.80;4.70;;;;;;;5.41;87.28;102730.84;4914028;29;20039;-75
2022/01/28 11:15:44;;;;;;;27.98;4.13;;;;;;;5.36;86.51;102740.56;4884774;29;20035;-75
2022/01/28 11:18:10;;;;;;;31.02;4.28;;;;;;;5.47;86.97;102745.34;4897757;29;20036;-75
2022/01/28 11:20:45;;;;;;;28.85;6.07;;;;;;;5.57;87.44;102751.84;4906794;29;20057;-75
2022/01/28 11:23:50;;;;;;;35.50;5.03;;;;;;;5.58;87.78;102756.16;4896822;29;20032;-75
2022/01/28 11:26:35;;;;;;;37.22;4.57;;;;;;;5.57;86.58;102762.25;4897654;29;20079;-74
2022/01/28 11:29:11;;;;;;;26.58;4.35;;;;;;;5.69;87.68;102768.72;4918092;29;20135;-75
2022/01/28 11:31:46;;;;;;;33.47;4.75;;;;;;;5.72;86.01;102775.56;4914603;29;20056;-75
2022/01/28 11:34:21;;;;;;;28.33;4.88;;;;;;;5.65;83.18;102773.22;4901069;29;20032;-75
2022/01/28 11:36:47;;;;;;;29.33;4.63;;;;;;;5.68;85.48;102769.63;4918148;29;20095;-75
2022/01/28 11:39:39;;;;;;;39.58;5.93;;;;;;;5.85;84.98;102769.75;4883793;29;20529;-75
2022/01/28 11:42:10;;;;;;;30.20;5.00;;;;;;;5.85;87.20;102779.31;4919697;29;20123;-75
2022/01/28 11:44:39;;;;;;;37.50;5.25;;;;;;;5.93;86.62;102792.00;4917410;29;20043;-75
2022/01/28 11:47:05;;;;;;;31.67;4.60;;;;;;;6.03;86.68;102790.75;4882412;29;20036;-75
2022/01/28 11:49:30;;;;;;;36.15;5.03;;;;;;;6.03;86.05;102791.59;4902896;29;20036;-75
2022/01/28 11:51:56;;;;;;;35.92;4.70;;;;;;;6.09;85.28;102793.09;4899173;29;20079;-76
2022/01/28 11:54:33;;;;;;;34.80;5.30;;;;;;;5.99;82.50;102799.59;4901891;29;20492;-74
2022/01/28 11:57:01;;;;;;;41.30;4.85;;;;;;;5.99;84.61;102810.00;4899957;29;20047;-75
2022/01/28 11:59:28;;;;;;;30.27;5.15;;;;;;;5.92;85.09;102800.75;4897083;29;20069;-75
2022/01/28 12:01:54;;;;;;;37.25;5.43;;;;;;;5.89;84.24;102812.13;4899610;29;20036;-74
2022/01/28 12:04:26;;;;;;;31.27;5.22;;;;;;;6.01;86.09;102813.41;4908238;29;20035;-76
2022/01/28 12:07:01;;;;;;;29.92;5.05;;;;;;;6.10;86.00;102812.16;4894879;29;20041;-74
2022/01/28 12:09:29;;;;;;;30.25;4.75;;;;;;;6.11;86.44;102804.28;4883846;29;20040;-75
2022/01/28 12:11:55;;;;;;;34.78;4.70;;;;;;;6.27;86.94;102794.00;4893518;29;20052;-75
2022/01/28 12:14:53;;;;;;;34.53;4.57;;;;;;;6.27;85.31;102803.59;4909619;29;20028;-75
2022/01/28 12:17:32;;;;;;;29.77;3.88;;;;;;;6.31;86.74;102806.03;4897366;29;20034;-75
2022/01/28 12:20:16;;;;;;;29.23;4.30;;;;;;;6.29;83.92;102810.47;4913341;29;20119;-75
2022/01/28 12:23:10;;;;;;;32.03;3.90;;;;;;;6.12;82.21;102808.59;4880340;29;20048;-75
2022/01/28 12:25:36;;;;;;;31.02;4.10;;;;;;;6.23;84.54;102813.31;4899893;29;20039;-76
2022/01/28 12:28:11;;;;;;;29.17;4.40;;;;;;;6.20;86.59;102816.06;4899813;29;20075;-76
2022/01/28 12:30:38;;;;;;;34.60;4.75;;;;;;;6.23;84.45;102816.78;4898599;29;20170;-76
2022/01/28 12:33:03;;;;;;;28.45;4.88;;;;;;;6.27;83.91;102809.66;4879456;29;20031;-75
2022/01/28 12:35:29;;;;;;;30.27;4.32;;;;;;;6.26;84.36;102812.34;4909428;29;20036;-76
2022/01/28 12:38:00;;;;;;;22.25;3.92;;;;;;;6.39;83.26;102797.84;4885478;29;20074;-75
2022/01/28 12:40:30;;;;;;;34.17;5.00;;;;;;;6.38;84.54;102804.81;4893287;29;20051;-75
2022/01/28 12:42:55;;;;;;;38.67;5.07;;;;;;;6.38;84.64;102796.16;4911671;29;20028;-74
2022/01/28 12:45:21;;;;;;;23.88;4.53;;;;;;;6.42;86.09;102806.38;4902122;29;20056;-74